Terminal Aerodrome Forecast
Issued by NWS Cleveland, OH

Home | Current Version | Previous Version | Text Only | Print | Product List | Glossary On
Versions: 1 2 3 4 5 6 7 8 9 10 11 12 13 14 15 16 17 18 19 20 21 22 23 24 25
998
FTUS41 KCLE 142328
TAFCAK
TAF
KCAK 142328Z 1500/1524 27008KT P6SM BKN035
      TEMPO 1500/1502 -SHSN BKN025
     FM150600 24004KT P6SM BKN150
     FM151300 22008KT P6SM BKN070
     FM151700 25015G25KT P6SM OVC025
     FM152300 26012KT P6SM BKN035=

USA.gov is the U.S. government's official web portal to all federal, state and local government web resources and services.